Time;durP1;ratioP1;P1;durP2;ratioP2;P2;SDS_P1;SDS_P2;PMS_P1;PMS_P2;Temp;Humidity;BMP_temperature;BMP_pressure;BME280_temperature;BME280_humidity;BME280_pressure;Samples;Min_cycle;Max_cycle;Signal;HPM_P1;HPM_P2
2022/04/26 03:40:31;;;;;;;36.00;29.60;;;11.80;99.90;;;;;;10387733;28;20293;-81
2022/04/26 03:45:34;;;;;;;34.07;30.50;;;11.80;99.90;;;;;;10380809;28;20701;-79
2022/04/26 03:50:36;;;;;;;33.20;29.80;;;11.80;99.90;;;;;;10384919;28;20222;-81
2022/04/26 03:55:39;;;;;;;33.70;30.20;;;11.80;99.90;;;;;;10384112;28;20257;-81
2022/04/26 04:00:42;;;;;;;29.27;26.37;;;11.80;99.90;;;;;;10361738;28;20497;-82
2022/04/26 04:05:45;;;;;;;31.80;28.50;;;11.70;99.90;;;;;;10364371;28;20195;-80
2022/04/26 04:10:47;;;;;;;30.63;26.73;;;11.70;99.90;;;;;;10377058;28;20226;-80
2022/04/26 04:15:50;;;;;;;33.23;29.80;;;11.70;99.90;;;;;;10370758;28;20241;-79
2022/04/26 04:20:54;;;;;;;30.00;26.87;;;11.70;99.90;;;;;;10377059;28;20687;-78
2022/04/26 04:25:57;;;;;;;31.23;26.47;;;11.70;99.90;;;;;;10378388;28;20630;-79
2022/04/26 04:31:01;;;;;;;31.80;27.17;;;11.70;99.90;;;;;;10378044;28;20218;-78
2022/04/26 04:36:03;;;;;;;25.53;22.73;;;11.70;99.90;;;;;;10374283;28;20616;-78
2022/04/26 04:41:06;;;;;;;26.50;23.93;;;11.70;99.90;;;;;;10377757;28;20285;-78
2022/04/26 04:46:09;;;;;;;23.90;21.57;;;11.70;99.90;;;;;;10378532;28;20198;-79
2022/04/26 04:51:11;;;;;;;26.30;23.60;;;11.80;99.90;;;;;;10354149;28;20219;-79
2022/04/26 04:56:14;;;;;;;25.97;23.23;;;11.80;99.90;;;;;;10359986;28;20693;-79
2022/04/26 05:01:17;;;;;;;25.93;23.30;;;11.80;99.90;;;;;;10348635;28;20243;-79
2022/04/26 05:06:20;;;;;;;29.57;24.90;;;11.80;99.90;;;;;;10370485;28;20203;-83
2022/04/26 05:11:22;;;;;;;26.30;23.50;;;11.80;99.90;;;;;;10318119;28;20219;-79
2022/04/26 05:16:25;;;;;;;27.00;23.73;;;11.80;99.90;;;;;;10346485;28;20193;-80
2022/04/26 05:21:27;;;;;;;26.60;23.93;;;11.80;99.90;;;;;;10371341;28;20234;-79
2022/04/26 05:26:30;;;;;;;27.33;24.57;;;11.80;99.90;;;;;;10391372;28;20195;-82
2022/04/26 05:31:33;;;;;;;31.50;25.33;;;11.90;99.90;;;;;;10374802;28;20222;-80
2022/04/26 05:36:35;;;;;;;28.57;25.20;;;11.90;99.90;;;;;;10373092;28;20212;-80
2022/04/26 05:41:38;;;;;;;28.83;25.70;;;11.90;99.90;;;;;;10338559;28;20270;-79
2022/04/26 05:46:41;;;;;;;27.17;24.23;;;11.90;99.90;;;;;;10354218;28;20202;-79
2022/04/26 05:51:43;;;;;;;27.40;24.60;;;11.90;99.90;;;;;;10369242;28;20223;-79
2022/04/26 05:56:45;;;;;;;23.47;20.93;;;11.90;99.90;;;;;;10351936;28;20246;-80
2022/04/26 06:01:49;;;;;;;25.63;22.77;;;11.90;99.90;;;;;;10372777;28;20201;-79
2022/04/26 06:06:51;;;;;;;24.43;21.90;;;11.90;99.90;;;;;;10373274;28;20209;-81
2022/04/26 06:11:53;;;;;;;27.50;24.67;;;12.00;99.90;;;;;;10350792;28;20586;-81
2022/04/26 06:16:57;;;;;;;26.93;24.30;;;12.00;99.90;;;;;;10359766;28;20229;-81
2022/04/26 06:21:59;;;;;;;27.53;24.63;;;12.00;99.90;;;;;;10382347;28;20201;-82
2022/04/26 06:27:02;;;;;;;29.47;26.40;;;12.00;99.90;;;;;;10383689;28;20205;-82
2022/04/26 06:32:06;;;;;;;29.07;26.00;;;12.10;99.90;;;;;;10380467;28;20210;-81
2022/04/26 06:37:08;;;;;;;29.83;26.63;;;12.20;99.90;;;;;;10380294;28;20223;-81
2022/04/26 06:42:10;;;;;;;30.20;25.67;;;12.30;99.90;;;;;;10369387;28;20649;-84
2022/04/26 06:47:14;;;;;;;28.50;25.40;;;12.30;99.90;;;;;;10381911;28;20222;-83
2022/04/26 06:52:16;;;;;;;28.93;25.83;;;12.40;99.90;;;;;;10375772;28;20229;-83
2022/04/26 06:57:19;;;;;;;27.90;25.17;;;12.40;99.90;;;;;;10364682;28;20218;-84
2022/04/26 07:02:23;;;;;;;23.87;21.47;;;12.40;99.90;;;;;;10378866;28;20214;-83
2022/04/26 07:07:25;;;;;;;24.60;22.00;;;12.50;99.90;;;;;;10378402;28;20214;-83
2022/04/26 07:12:27;;;;;;;26.73;24.17;;;12.50;99.90;;;;;;10379473;28;20215;-82
2022/04/26 07:17:31;;;;;;;23.60;21.20;;;12.50;99.90;;;;;;10386326;28;20214;-83
2022/04/26 07:22:33;;;;;;;22.33;20.33;;;12.60;99.90;;;;;;10378168;28;20674;-82
2022/04/26 07:27:35;;;;;;;21.30;19.23;;;12.60;99.90;;;;;;10355962;28;20226;-82
2022/04/26 07:38:06;;;;;;;20.37;18.47;;;13.20;99.90;;;;;;10351610;28;20222;-82
2022/04/26 07:43:08;;;;;;;14.87;13.63;;;13.50;99.90;;;;;;10365002;28;20194;-82
2022/04/26 07:48:14;;;;;;;14.80;13.60;;;13.70;99.90;;;;;;10368232;28;20249;-82
2022/04/26 07:53:16;;;;;;;15.77;14.37;;;13.70;99.90;;;;;;10388510;28;20250;-82
2022/04/26 07:58:19;;;;;;;16.20;14.90;;;13.70;99.90;;;;;;10362362;28;20242;-82
2022/04/26 08:03:23;;;;;;;14.77;13.63;;;13.70;99.90;;;;;;10374171;28;20229;-83
2022/04/26 08:08:25;;;;;;;13.90;12.80;;;13.70;99.90;;;;;;10391492;28;20249;-82
2022/04/26 08:13:27;;;;;;;15.87;14.53;;;13.80;99.90;;;;;;10381811;28;20230;-82
2022/04/26 08:18:31;;;;;;;16.60;15.20;;;13.80;99.90;;;;;;10389931;28;20301;-83
2022/04/26 08:23:34;;;;;;;14.57;13.33;;;13.70;99.90;;;;;;10350319;28;20214;-82
2022/04/26 08:28:36;;;;;;;15.57;14.17;;;13.60;99.90;;;;;;10360308;28;20222;-83
2022/04/26 08:33:40;;;;;;;15.03;13.87;;;13.70;99.90;;;;;;10387498;28;20233;-82
2022/04/26 08:38:44;;;;;;;18.70;14.03;;;13.80;99.90;;;;;;10382927;28;20221;-79
2022/04/26 08:43:46;;;;;;;15.07;13.87;;;13.90;99.90;;;;;;10341987;28;20207;-82
2022/04/26 08:54:14;;;;;;;12.57;11.60;;;14.30;99.90;;;;;;10380414;28;20225;-83
2022/04/26 08:59:23;;;;;;;15.77;14.47;;;14.50;99.90;;;;;;10375127;28;20248;-81
2022/04/26 09:04:26;;;;;;;14.27;12.90;;;14.70;99.90;;;;;;10361197;28;20662;-82
2022/04/26 09:09:31;;;;;;;11.70;10.77;;;14.60;99.90;;;;;;10341029;28;20226;-81
2022/04/26 09:14:35;;;;;;;13.23;12.20;;;14.70;99.90;;;;;;10353151;28;20256;-83
2022/04/26 09:19:48;;;;;;;12.20;11.10;;;14.70;99.90;;;;;;10357937;28;20280;-80
2022/04/26 09:24:55;;;;;;;12.10;10.90;;;14.90;99.90;;;;;;10376584;28;20261;-81
2022/04/26 09:29:58;;;;;;;10.00;9.20;;;14.70;99.90;;;;;;10375403;28;20236;-79
2022/04/26 09:35:18;;;;;;;12.70;11.70;;;14.60;99.90;;;;;;10372224;28;20226;-81
2022/04/26 09:40:21;;;;;;;12.63;11.63;;;14.80;99.90;;;;;;10352343;28;20297;-81
2022/04/26 09:45:23;;;;;;;11.13;10.23;;;15.00;99.90;;;;;;10363283;28;20681;-80
2022/04/26 09:50:27;;;;;;;10.90;10.00;;;15.20;99.90;;;;;;10358829;28;20222;-82
2022/04/26 09:55:30;;;;;;;9.53;8.73;;;15.60;99.90;;;;;;10338283;28;20257;-83
2022/04/26 10:00:33;;;;;;;9.30;8.50;;;15.90;99.90;;;;;;10348738;28;20224;-83
2022/04/26 10:05:41;;;;;;;8.90;8.10;;;16.10;99.90;;;;;;10344100;28;20205;-83
2022/04/26 10:10:44;;;;;;;8.70;8.03;;;16.30;99.90;;;;;;10367034;28;20229;-83
2022/04/26 10:15:47;;;;;;;8.33;7.63;;;16.30;99.90;;;;;;10309355;28;20258;-83
2022/04/26 10:20:50;;;;;;;8.53;7.90;;;16.50;99.90;;;;;;10288064;28;20212;-83
2022/04/26 10:26:23;;;;;;;7.30;6.60;;;16.60;99.90;;;;;;10309793;28;20196;-82
2022/04/26 10:31:42;;;;;;;7.57;6.97;;;16.80;99.90;;;;;;10321479;28;20228;-81
2022/04/26 10:36:49;;;;;;;7.60;7.00;;;16.80;99.90;;;;;;10307633;28;20223;-83
2022/04/26 10:41:52;;;;;;;7.63;7.07;;;16.80;99.90;;;;;;10315457;28;20497;-82
2022/04/26 10:47:23;;;;;;;8.07;7.47;;;16.60;99.90;;;;;;10295897;28;20658;-83
2022/04/26 10:52:49;;;;;;;8.60;6.73;;;16.40;99.90;;;;;;10244111;28;20580;-80
2022/04/26 10:57:57;;;;;;;7.53;6.93;;;16.20;99.90;;;;;;10296705;28;20301;-83
2022/04/26 11:03:05;;;;;;;6.47;6.00;;;16.10;99.90;;;;;;10299099;28;20206;-83
2022/04/26 11:08:09;;;;;;;6.50;6.10;;;16.00;99.90;;;;;;10287978;28;20224;-81
2022/04/26 11:13:32;;;;;;;7.90;7.00;;;16.00;99.90;;;;;;10310721;28;20228;-81
2022/04/26 11:18:35;;;;;;;6.43;5.83;;;16.00;99.90;;;;;;10307753;28;20585;-81
2022/04/26 11:28:58;;;;;;;10.53;9.73;;;15.80;99.90;;;;;;10285791;28;20231;-83
2022/04/26 11:34:00;;;;;;;10.73;9.83;;;15.60;99.90;;;;;;10302115;28;20636;-82
2022/04/26 11:39:03;;;;;;;10.27;9.50;;;15.40;99.90;;;;;;10303375;28;20216;-82
2022/04/26 11:44:06;;;;;;;10.47;9.43;;;15.40;99.90;;;;;;10303883;28;20206;-82
2022/04/26 11:49:09;;;;;;;10.80;9.90;;;15.20;99.90;;;;;;10304002;28;20228;-82
2022/04/26 11:54:34;;;;;;;9.83;9.03;;;15.00;99.90;;;;;;10303654;28;20276;-83
2022/04/26 11:59:39;;;;;;;9.23;8.53;;;15.00;99.90;;;;;;10286988;28;20326;-83
2022/04/26 12:04:41;;;;;;;8.40;7.67;;;15.10;99.90;;;;;;10288374;28;20196;-83
2022/04/26 12:09:45;;;;;;;8.60;7.53;;;15.10;99.90;;;;;;10304710;28;20215;-83
2022/04/26 12:14:50;;;;;;;9.23;8.37;;;15.10;99.90;;;;;;10273416;28;20216;-83
2022/04/26 12:19:54;;;;;;;8.50;7.80;;;15.10;99.90;;;;;;10289547;28;20306;-83
2022/04/26 12:24:57;;;;;;;8.30;7.60;;;15.00;99.90;;;;;;10307213;28;20207;-83
2022/04/26 12:30:10;;;;;;;8.27;7.57;;;15.10;99.90;;;;;;10304950;28;20707;-82
2022/04/26 12:35:12;;;;;;;7.83;7.23;;;15.10;99.90;;;;;;10275438;28;20227;-82
2022/04/26 12:40:19;;;;;;;8.90;8.20;;;15.00;99.90;;;;;;10318142;28;20639;-80
2022/04/26 12:45:25;;;;;;;8.03;6.53;;;15.00;99.90;;;;;;10294574;28;20192;-81
2022/04/26 12:50:31;;;;;;;6.50;5.53;;;15.00;99.90;;;;;;10289373;28;20216;-80
2022/04/26 12:55:38;;;;;;;6.07;5.30;;;14.70;99.90;;;;;;10282314;28;20241;-81
2022/04/26 13:00:42;;;;;;;5.47;5.07;;;14.30;99.90;;;;;;10325748;28;20622;-81
2022/04/26 13:05:46;;;;;;;5.30;4.80;;;13.80;99.90;;;;;;10295230;28;20557;-82
2022/04/26 13:10:49;;;;;;;5.70;5.20;;;13.50;99.90;;;;;;10278396;28;20629;-81
2022/04/26 13:15:55;;;;;;;6.37;5.77;;;13.20;99.90;;;;;;10309808;28;20707;-82
2022/04/26 13:20:59;;;;;;;6.07;5.67;;;13.10;99.90;;;;;;10261595;28;20216;-83
2022/04/26 13:26:03;;;;;;;6.63;6.17;;;13.10;99.90;;;;;;10310321;28;20206;-81
2022/04/26 13:31:05;;;;;;;6.23;5.83;;;13.10;99.90;;;;;;10275949;28;20231;-81
2022/04/26 13:36:08;;;;;;;6.50;6.00;;;13.40;99.90;;;;;;10294844;28;20246;-81
2022/04/26 13:41:12;;;;;;;5.33;4.93;;;13.70;99.90;;;;;;10279369;28;20223;-82
2022/04/26 13:46:14;;;;;;;4.63;4.20;;;14.00;99.90;;;;;;10306421;28;20268;-83
2022/04/26 13:51:16;;;;;;;4.70;4.40;;;14.10;99.90;;;;;;10310933;28;20219;-83
2022/04/26 13:56:20;;;;;;;4.87;4.50;;;14.10;99.90;;;;;;10312565;28;20269;-81
2022/04/26 14:01:23;;;;;;;4.27;3.90;;;14.10;99.90;;;;;;10314007;28;20700;-84
2022/04/26 14:06:25;;;;;;;4.30;4.00;;;14.00;99.90;;;;;;10289707;28;20644;-81
2022/04/26 14:11:28;;;;;;;4.37;3.93;;;14.10;99.90;;;;;;10331148;28;20216;-82
2022/04/26 14:21:51;;;;;;;4.53;4.23;;;14.30;99.90;;;;;;10268499;28;20198;-83
2022/04/26 14:26:54;;;;;;;4.20;3.90;;;14.30;99.90;;;;;;10328876;28;20206;-83
2022/04/26 14:31:57;;;;;;;4.63;4.33;;;14.60;99.90;;;;;;10311057;28;20231;-83
2022/04/26 14:37:14;;;;;;;5.27;4.87;;;14.70;99.90;;;;;;10295543;28;20584;-83
2022/04/26 14:42:37;;;;;;;5.70;5.30;;;14.80;99.90;;;;;;10300718;28;20195;-82
2022/04/26 14:47:45;;;;;;;6.03;5.50;;;14.90;99.90;;;;;;10304726;28;20595;-82
2022/04/26 14:52:57;;;;;;;5.27;4.87;;;14.80;99.90;;;;;;10319702;28;20251;-83
2022/04/26 14:58:14;;;;;;;4.37;4.07;;;15.00;99.90;;;;;;10307322;28;20227;-83
2022/04/26 15:03:16;;;;;;;4.73;4.43;;;14.90;99.90;;;;;;10315247;28;20206;-82
2022/04/26 15:19:01;;;;;;;4.57;4.27;;;14.60;99.90;;;;;;10336576;28;20259;-82
2022/04/26 15:24:03;;;;;;;5.60;5.20;;;14.70;99.90;;;;;;10282175;28;20748;-83
2022/04/26 15:29:07;;;;;;;5.20;4.90;;;14.60;99.90;;;;;;10305689;28;20290;-82
2022/04/26 15:34:09;;;;;;;5.00;4.60;;;14.70;99.90;;;;;;10302389;28;20216;-81
2022/04/26 15:39:12;;;;;;;5.33;4.93;;;14.60;99.90;;;;;;10310410;28;20227;-82
2022/04/26 15:44:16;;;;;;;6.40;5.90;;;14.60;99.90;;;;;;10295281;28;20220;-83
2022/04/26 15:49:20;;;;;;;6.13;5.63;;;14.40;99.90;;;;;;10286666;28;20235;-83
2022/04/26 15:54:22;;;;;;;6.10;5.60;;;14.20;99.90;;;;;;10265616;28;20205;-82
2022/04/26 15:59:26;;;;;;;6.80;6.30;;;13.80;99.90;;;;;;10278442;28;20574;-82
2022/04/26 16:04:28;;;;;;;6.03;5.53;;;13.50;99.90;;;;;;10299303;28;20192;-80
2022/04/26 16:20:34;;;;;;;6.70;6.20;;;13.00;99.90;;;;;;10289140;28;21014;-81
2022/04/26 16:25:36;;;;;;;6.20;5.60;;;12.80;99.90;;;;;;10304759;28;20234;-81
2022/04/26 16:30:41;;;;;;;5.07;4.77;;;12.70;99.90;;;;;;10278273;28;20239;-81
2022/04/26 16:35:45;;;;;;;6.07;5.67;;;12.60;99.90;;;;;;10305103;28;20398;-82
2022/04/26 16:40:47;;;;;;;6.23;5.83;;;12.40;99.90;;;;;;10295674;28;20233;-82
2022/04/26 16:45:51;;;;;;;6.23;5.73;;;12.50;99.90;;;;;;10309482;28;20211;-83
2022/04/26 16:50:54;;;;;;;6.27;5.87;;;12.50;99.90;;;;;;10291269;28;20602;-82
2022/04/26 16:55:56;;;;;;;5.50;5.17;;;12.60;99.90;;;;;;10282489;28;20229;-82
2022/04/26 17:01:00;;;;;;;5.07;4.77;;;12.50;99.90;;;;;;10283351;28;20626;-82
2022/04/26 17:06:05;;;;;;;5.60;5.20;;;12.40;99.90;;;;;;10308547;28;20211;-81
2022/04/26 17:16:29;;;;;;;3.93;3.63;;;12.40;99.90;;;;;;10298497;28;20234;-83
2022/04/26 17:21:32;;;;;;;4.60;4.30;;;12.50;99.90;;;;;;10273571;28;20246;-82
2022/04/26 17:26:34;;;;;;;5.00;4.70;;;12.50;99.90;;;;;;10256784;28;20215;-82
2022/04/26 17:31:38;;;;;;;4.73;4.43;;;12.50;99.90;;;;;;10274049;28;20757;-84
2022/04/26 17:36:42;;;;;;;4.43;4.20;;;12.50;99.90;;;;;;10286984;28;20223;-85
2022/04/26 17:41:46;;;;;;;4.97;4.60;;;12.40;99.90;;;;;;10319494;28;20285;-84
2022/04/26 17:46:51;;;;;;;4.27;3.83;;;12.50;99.90;;;;;;10302135;28;20199;-80
2022/04/26 17:51:53;;;;;;;5.27;4.87;;;12.50;99.90;;;;;;10277219;28;20684;-80
2022/04/26 17:56:55;;;;;;;5.00;4.70;;;12.60;99.90;;;;;;10316470;28;20979;-80
2022/04/26 18:02:01;;;;;;;4.87;4.57;;;12.50;99.90;;;;;;10284239;28;20211;-78
2022/04/26 18:07:03;;;;;;;5.40;5.00;;;12.50;99.90;;;;;;10276076;28;20200;-81
2022/04/26 18:12:06;;;;;;;4.87;4.47;;;12.50;99.90;;;;;;10283941;28;20299;-79
2022/04/26 18:17:24;;;;;;;5.07;4.67;;;12.50;99.90;;;;;;10279782;28;20319;-79
2022/04/26 18:22:27;;;;;;;4.60;4.30;;;12.50;99.90;;;;;;10296784;28;20234;-79
2022/04/26 18:27:29;;;;;;;8.10;7.50;;;12.50;99.90;;;;;;10308353;28;20224;-78
2022/04/26 18:32:33;;;;;;;5.30;5.00;;;12.50;99.90;;;;;;10310321;28;20199;-79
2022/04/26 18:37:35;;;;;;;15.63;12.80;;;12.50;99.90;;;;;;10305370;28;20234;-83
2022/04/26 18:42:37;;;;;;;4.90;4.50;;;12.50;99.90;;;;;;10306926;28;20236;-79
2022/04/26 18:47:40;;;;;;;6.00;5.60;;;12.50;99.90;;;;;;10313987;28;20226;-80
2022/04/26 18:52:43;;;;;;;7.37;5.30;;;12.60;99.90;;;;;;10316158;28;20591;-79
2022/04/26 18:57:45;;;;;;;5.67;5.27;;;12.50;99.90;;;;;;10308488;28;20226;-80
2022/04/26 19:02:50;;;;;;;5.40;5.00;;;12.60;99.90;;;;;;10311030;28;20227;-80
2022/04/26 19:07:52;;;;;;;5.20;4.80;;;12.60;99.90;;;;;;10301179;28;20221;-80
2022/04/26 19:12:54;;;;;;;5.20;4.80;;;12.50;99.90;;;;;;10283583;28;20286;-81
2022/04/26 19:17:58;;;;;;;5.87;4.80;;;12.50;99.90;;;;;;10285924;28;20906;-80
2022/04/26 19:23:00;;;;;;;5.83;5.40;;;12.40;99.90;;;;;;10296280;28;20216;-80
2022/04/26 19:28:02;;;;;;;4.90;4.60;;;12.30;99.90;;;;;;10306687;28;20227;-79
2022/04/26 19:33:06;;;;;;;5.43;4.77;;;12.20;99.90;;;;;;10293751;28;20203;-80
2022/04/26 19:38:08;;;;;;;5.90;5.40;;;12.00;99.90;;;;;;10303116;28;20756;-80
2022/04/26 19:43:10;;;;;;;5.80;5.40;;;11.80;99.90;;;;;;10306200;28;20957;-81
2022/04/26 19:48:15;;;;;;;5.27;4.97;;;11.70;99.90;;;;;;10286330;28;20724;-81
2022/04/26 19:53:18;;;;;;;5.20;4.80;;;11.60;99.90;;;;;;10303735;28;20214;-80
2022/04/26 19:58:20;;;;;;;5.10;4.70;;;11.50;99.90;;;;;;10293017;28;20231;-80
2022/04/26 20:03:24;;;;;;;7.17;6.67;;;11.50;99.90;;;;;;10277621;28;20196;-81
2022/04/26 20:08:26;;;;;;;6.97;6.47;;;11.40;99.90;;;;;;10311953;28;20227;-82
2022/04/26 20:13:28;;;;;;;18.63;17.00;;;11.30;99.90;;;;;;10296137;28;20262;-82
2022/04/26 20:18:32;;;;;;;7.50;7.00;;;11.30;99.90;;;;;;10303765;28;20297;-80
2022/04/26 20:23:34;;;;;;;6.93;6.53;;;11.20;99.90;;;;;;10274425;28;20223;-80
2022/04/26 20:34:01;;;;;;;7.20;6.70;;;11.10;99.90;;;;;;10260506;28;20270;-80
2022/04/26 20:39:03;;;;;;;6.60;6.10;;;11.10;99.90;;;;;;10284845;28;20227;-81
2022/04/26 20:44:05;;;;;;;8.47;7.87;;;11.00;99.90;;;;;;10285807;28;20246;-80
2022/04/26 20:49:10;;;;;;;7.23;6.73;;;11.10;99.90;;;;;;10292425;28;20228;-80
2022/04/26 20:54:12;;;;;;;8.77;8.07;;;11.10;99.90;;;;;;10298649;28;20204;-80
2022/04/26 20:59:14;;;;;;;8.13;7.53;;;11.10;99.90;;;;;;10287980;28;20214;-81
2022/04/26 21:04:18;;;;;;;9.53;8.73;;;11.10;99.90;;;;;;10266663;28;20224;-80
2022/04/26 21:09:20;;;;;;;9.10;8.40;;;11.00;99.90;;;;;;10282713;28;20233;-81
2022/04/26 21:14:22;;;;;;;8.27;7.67;;;11.00;99.90;;;;;;10294468;28;20254;-80
2022/04/26 21:19:26;;;;;;;8.20;7.60;;;11.00;99.90;;;;;;10295007;28;20692;-80
2022/04/26 21:24:28;;;;;;;9.13;8.43;;;11.10;99.90;;;;;;10313770;28;20250;-80
2022/04/26 21:29:33;;;;;;;9.03;8.23;;;11.10;99.90;;;;;;10286547;28;20812;-82
2022/04/26 21:34:36;;;;;;;8.97;8.17;;;11.20;99.90;;;;;;10300159;28;20207;-81
2022/04/26 21:39:38;;;;;;;9.47;8.67;;;11.20;99.90;;;;;;10308828;28;20219;-82
2022/04/26 21:44:40;;;;;;;9.50;8.70;;;11.20;99.90;;;;;;10289812;28;20204;-82
2022/04/26 21:55:04;;;;;;;10.07;9.33;;;11.30;99.90;;;;;;10299393;28;20222;-82
2022/04/26 22:00:30;;;;;;;9.97;9.17;;;11.30;99.90;;;;;;10298344;28;20731;-80
2022/04/26 22:05:34;;;;;;;10.17;9.37;;;11.30;99.90;;;;;;10284140;28;20203;-82
2022/04/26 22:10:37;;;;;;;11.97;10.87;;;11.30;99.90;;;;;;10285220;28;20344;-81
2022/04/26 22:15:39;;;;;;;9.40;8.60;;;11.30;99.90;;;;;;10280249;28;20251;-80
2022/04/26 22:20:43;;;;;;;9.20;8.50;;;11.30;99.90;;;;;;10284143;28;20672;-80
2022/04/26 22:25:47;;;;;;;9.00;8.30;;;11.30;99.90;;;;;;10304668;28;20222;-83
2022/04/26 22:30:49;;;;;;;10.30;9.40;;;11.30;99.90;;;;;;10277824;28;20920;-81
2022/04/26 22:35:52;;;;;;;10.40;9.60;;;11.40;99.90;;;;;;10294599;28;20228;-80
2022/04/26 22:40:54;;;;;;;11.03;10.13;;;11.40;99.90;;;;;;10326079;28;20246;-82
2022/04/26 22:45:56;;;;;;;12.47;11.30;;;11.40;99.90;;;;;;10298557;28;20251;-81
2022/04/26 22:51:00;;;;;;;10.60;9.80;;;11.40;99.90;;;;;;10290230;28;20222;-82
2022/04/26 22:56:02;;;;;;;12.40;11.40;;;11.40;99.90;;;;;;10302245;28;20680;-80
2022/04/26 23:01:08;;;;;;;11.70;10.70;;;11.50;99.90;;;;;;10262127;28;20228;-80
2022/04/26 23:06:14;;;;;;;12.13;11.13;;;11.50;99.90;;;;;;10330762;28;20223;-82
2022/04/26 23:11:16;;;;;;;12.00;10.90;;;11.50;99.90;;;;;;10306211;28;20229;-80
2022/04/26 23:16:18;;;;;;;13.10;11.80;;;11.50;99.90;;;;;;10307930;28;20227;-80
2022/04/26 23:21:24;;;;;;;13.83;12.47;;;11.40;99.90;;;;;;10297853;28;20227;-80
2022/04/26 23:26:26;;;;;;;13.43;12.33;;;11.40;99.90;;;;;;10330893;28;20534;-81
2022/04/26 23:31:28;;;;;;;12.93;11.83;;;11.40;99.90;;;;;;10412497;23;20236;-80
2022/04/26 23:36:32;;;;;;;15.77;14.37;;;11.40;99.90;;;;;;10408765;28;20226;-80
2022/04/26 23:41:34;;;;;;;15.43;14.13;;;11.40;99.90;;;;;;10414109;28;20607;-81
2022/04/26 23:46:36;;;;;;;15.30;14.00;;;11.40;99.90;;;;;;10406372;28;20198;-80
2022/04/26 23:56:59;;;;;;;16.40;14.80;;;11.40;99.90;;;;;;10397188;28;20221;-79
